Time;durP1;ratioP1;P1;durP2;ratioP2;P2;SDS_P1;SDS_P2;PMS_P1;PMS_P2;Temp;Humidity;BMP_temperature;BMP_pressure;BME280_temperature;BME280_humidity;BME280_pressure;Samples;Min_cycle;Max_cycle;Signal;HPM_P1;HPM_P2
2022/08/28 00:02:06;;;;;;;9.35;7.97;;;19.10;99.90;;;;;;5033695;28;20177;-77
2022/08/28 00:04:33;;;;;;;12.18;7.47;;;19.10;99.90;;;;;;5037876;28;20216;-78
2022/08/28 00:06:59;;;;;;;7.85;7.05;;;19.00;99.90;;;;;;5031412;28;20231;-77
2022/08/28 00:09:24;;;;;;;9.32;7.22;;;19.10;99.90;;;;;;5030349;28;20196;-79
2022/08/28 00:11:50;;;;;;;9.10;8.20;;;19.00;99.90;;;;;;5031700;28;20216;-80
2022/08/28 00:14:19;;;;;;;10.02;7.28;;;19.00;99.90;;;;;;5037529;28;20203;-78
2022/08/28 00:16:46;;;;;;;8.10;7.45;;;19.00;99.90;;;;;;5038209;28;20196;-77
2022/08/28 00:19:13;;;;;;;8.00;7.00;;;19.00;99.90;;;;;;5040494;28;20192;-78
2022/08/28 00:21:38;;;;;;;10.30;7.25;;;19.10;99.90;;;;;;5028363;28;20186;-78
2022/08/28 00:24:04;;;;;;;8.30;6.88;;;19.00;99.90;;;;;;5033824;28;20180;-78
2022/08/28 00:29:14;;;;;;;9.35;7.07;;;19.00;99.90;;;;;;5032595;28;20291;-78
2022/08/28 00:31:39;;;;;;;9.70;7.82;;;19.00;99.90;;;;;;5031704;28;20188;-77
2022/08/28 00:34:06;;;;;;;8.15;7.35;;;19.00;99.90;;;;;;5026805;28;20191;-78
2022/08/28 00:36:32;;;;;;;8.23;7.53;;;19.00;99.90;;;;;;5031847;28;20235;-78
2022/08/28 00:38:59;;;;;;;8.32;7.45;;;19.00;99.90;;;;;;5042094;28;20273;-77
2022/08/28 00:41:30;;;;;;;8.93;8.00;;;19.00;99.90;;;;;;5033185;28;20175;-77
2022/08/28 00:44:14;;;;;;;9.10;7.70;;;19.00;99.90;;;;;;5033651;28;20208;-78
2022/08/28 00:46:43;;;;;;;8.38;7.57;;;19.00;99.90;;;;;;5039720;28;20180;-78
2022/08/28 00:49:10;;;;;;;7.93;7.22;;;19.00;99.90;;;;;;5029522;28;20884;-78
2022/08/28 00:54:22;;;;;;;7.82;7.07;;;19.10;99.90;;;;;;5028663;28;20223;-78
2022/08/28 00:56:48;;;;;;;8.48;7.30;;;19.10;99.90;;;;;;5038214;28;20236;-78
2022/08/28 00:59:16;;;;;;;8.88;7.97;;;19.00;99.90;;;;;;5033601;28;20282;-78
2022/08/28 01:01:44;;;;;;;9.63;7.88;;;19.00;99.90;;;;;;5029397;28;20252;-78
2022/08/28 01:04:16;;;;;;;9.23;8.32;;;18.90;99.90;;;;;;5041958;28;20184;-78
2022/08/28 01:06:44;;;;;;;8.48;7.60;;;18.90;99.90;;;;;;5041749;28;20177;-78
2022/08/28 01:09:11;;;;;;;8.93;8.10;;;18.90;99.90;;;;;;5033107;28;20238;-78
2022/08/28 01:11:40;;;;;;;9.40;8.48;;;18.90;99.90;;;;;;5033123;28;20171;-78
2022/08/28 01:14:07;;;;;;;10.05;8.07;;;18.80;99.90;;;;;;5035428;28;20646;-78
2022/08/28 01:16:34;;;;;;;9.23;8.10;;;18.80;99.90;;;;;;5040685;28;20196;-78
2022/08/28 01:19:02;;;;;;;11.50;8.27;;;18.80;99.90;;;;;;5040145;28;20193;-78
2022/08/28 01:21:33;;;;;;;10.23;9.20;;;18.80;99.90;;;;;;5041868;28;20522;-78
2022/08/28 01:24:05;;;;;;;11.77;9.18;;;18.80;99.90;;;;;;5036635;28;20180;-78
2022/08/28 01:26:31;;;;;;;9.93;8.90;;;18.80;99.90;;;;;;5037920;28;20711;-78
2022/08/28 01:28:58;;;;;;;10.27;9.38;;;18.80;99.90;;;;;;5035057;28;20208;-78
2022/08/28 01:31:26;;;;;;;11.10;9.68;;;18.80;99.90;;;;;;5043356;28;20176;-78
2022/08/28 01:33:51;;;;;;;9.05;8.25;;;18.80;99.90;;;;;;5038566;28;20639;-78
2022/08/28 01:36:17;;;;;;;10.77;9.68;;;18.80;99.90;;;;;;5046359;28;20187;-78
2022/08/28 01:38:48;;;;;;;9.65;8.48;;;18.80;99.90;;;;;;5041290;28;20197;-76
2022/08/28 01:41:13;;;;;;;9.85;8.75;;;18.80;99.90;;;;;;5033541;28;20172;-78
2022/08/28 01:43:41;;;;;;;10.65;9.73;;;18.80;99.90;;;;;;5035680;28;20516;-78
2022/08/28 01:46:08;;;;;;;11.82;10.73;;;18.80;99.90;;;;;;5042468;28;20592;-79
2022/08/28 01:48:38;;;;;;;11.20;9.93;;;18.80;99.90;;;;;;5023345;28;20580;-77
2022/08/28 01:51:04;;;;;;;10.82;9.73;;;18.80;99.90;;;;;;5034840;28;20255;-77
2022/08/28 01:53:31;;;;;;;11.10;9.95;;;18.80;99.90;;;;;;5031360;28;20696;-77
2022/08/28 01:55:59;;;;;;;10.77;9.75;;;18.80;99.90;;;;;;5028409;28;20643;-77
2022/08/28 01:58:26;;;;;;;10.82;9.65;;;18.80;99.90;;;;;;5037194;28;20262;-77
2022/08/28 02:00:52;;;;;;;11.80;9.93;;;18.80;99.90;;;;;;5033173;28;20581;-77
2022/08/28 02:03:18;;;;;;;11.32;9.95;;;18.80;99.90;;;;;;5041511;28;20168;-77
2022/08/28 02:05:44;;;;;;;10.98;9.88;;;18.80;99.90;;;;;;5037503;28;20191;-76
2022/08/28 02:08:10;;;;;;;11.32;10.15;;;18.80;99.90;;;;;;5031365;28;20258;-76
2022/08/28 02:10:39;;;;;;;11.35;9.63;;;18.80;99.90;;;;;;5040351;28;20180;-77
2022/08/28 02:13:06;;;;;;;11.70;9.02;;;18.80;99.90;;;;;;5044727;28;20282;-77
2022/08/28 02:15:33;;;;;;;13.45;10.02;;;18.80;99.90;;;;;;5037308;28;20264;-78
2022/08/28 02:17:59;;;;;;;9.90;9.00;;;18.80;99.90;;;;;;5035255;28;20243;-77
2022/08/28 02:20:26;;;;;;;10.95;9.50;;;18.80;99.90;;;;;;5040520;28;20200;-78
2022/08/28 02:22:52;;;;;;;11.05;9.68;;;18.80;99.90;;;;;;5037647;28;20643;-79
2022/08/28 02:25:18;;;;;;;9.48;8.68;;;18.80;99.90;;;;;;5043416;28;20187;-78
2022/08/28 02:27:44;;;;;;;10.48;8.75;;;18.80;99.90;;;;;;5034596;28;20659;-78
2022/08/28 02:30:12;;;;;;;10.27;9.27;;;18.70;99.90;;;;;;5042690;28;20197;-78
2022/08/28 02:32:38;;;;;;;10.07;9.05;;;18.70;99.90;;;;;;5032227;28;20196;-78
2022/08/28 02:35:06;;;;;;;10.88;9.80;;;18.80;99.90;;;;;;5038333;28;20181;-78
2022/08/28 02:37:32;;;;;;;10.50;9.63;;;18.70;99.90;;;;;;5041536;28;20209;-78
2022/08/28 02:39:58;;;;;;;10.02;9.05;;;18.70;99.90;;;;;;5033698;28;20843;-78
2022/08/28 02:42:25;;;;;;;9.65;8.75;;;18.70;99.90;;;;;;5034686;28;20172;-78
2022/08/28 02:44:51;;;;;;;11.20;10.07;;;18.70;99.90;;;;;;5034159;28;20175;-78
2022/08/28 02:47:17;;;;;;;9.55;8.65;;;18.60;99.90;;;;;;5044375;28;20176;-78
2022/08/28 02:49:43;;;;;;;9.80;8.90;;;18.70;99.90;;;;;;5041511;28;20273;-78
2022/08/28 02:52:09;;;;;;;10.93;9.75;;;18.70;99.90;;;;;;5039093;28;20684;-78
2022/08/28 02:54:38;;;;;;;10.18;9.27;;;18.70;99.90;;;;;;5050344;28;20177;-77
2022/08/28 02:57:05;;;;;;;10.88;9.88;;;18.70;99.90;;;;;;5039450;28;20255;-78
2022/08/28 02:59:31;;;;;;;11.07;10.00;;;18.70;99.90;;;;;;5034230;28;20683;-77
2022/08/28 03:01:57;;;;;;;13.45;10.25;;;18.60;99.90;;;;;;5031768;28;20358;-77
2022/08/28 03:04:25;;;;;;;12.15;9.35;;;18.60;99.90;;;;;;5043097;28;20259;-78
2022/08/28 03:06:51;;;;;;;9.80;8.93;;;18.60;99.90;;;;;;5024687;28;20207;-77
2022/08/28 03:09:17;;;;;;;10.00;9.10;;;18.60;99.90;;;;;;5029867;28;20754;-77
2022/08/28 03:11:42;;;;;;;11.38;10.27;;;18.60;99.90;;;;;;5027922;28;20177;-77
2022/08/28 03:14:08;;;;;;;10.60;9.60;;;18.60;99.90;;;;;;5032929;28;20229;-77
2022/08/28 03:16:33;;;;;;;11.75;9.90;;;18.60;99.90;;;;;;5028561;28;20212;-77
2022/08/28 03:18:59;;;;;;;10.30;9.18;;;18.60;99.90;;;;;;5032068;28;20192;-77
2022/08/28 03:21:25;;;;;;;11.23;10.23;;;18.60;99.90;;;;;;5033242;28;20272;-78
2022/08/28 03:23:50;;;;;;;12.38;9.90;;;18.60;99.90;;;;;;5033022;28;20225;-78
2022/08/28 03:26:19;;;;;;;12.20;10.95;;;18.60;99.90;;;;;;5023489;28;20260;-78
2022/08/28 03:28:48;;;;;;;10.07;9.20;;;18.60;99.90;;;;;;5024535;28;20189;-78
2022/08/28 03:31:18;;;;;;;10.65;9.55;;;18.60;99.90;;;;;;5032552;28;20307;-76
2022/08/28 03:33:44;;;;;;;11.15;10.05;;;18.60;99.90;;;;;;5027908;28;20185;-77
2022/08/28 03:36:12;;;;;;;11.02;9.98;;;18.60;99.90;;;;;;5026476;28;20287;-78
2022/08/28 03:38:38;;;;;;;11.38;10.07;;;18.60;99.90;;;;;;5028122;28;20203;-77
2022/08/28 03:41:12;;;;;;;11.52;9.95;;;18.60;99.90;;;;;;5027396;28;20185;-78
2022/08/28 03:43:38;;;;;;;11.90;10.70;;;18.60;99.90;;;;;;5027321;28;20205;-78
2022/08/28 03:46:06;;;;;;;11.13;9.85;;;18.60;99.90;;;;;;5033461;28;20541;-78
2022/08/28 03:48:35;;;;;;;10.68;9.77;;;18.60;99.90;;;;;;5045054;28;20196;-78
2022/08/28 03:51:01;;;;;;;13.15;10.75;;;18.60;99.90;;;;;;5027488;28;20550;-78
2022/08/28 03:53:28;;;;;;;11.38;10.27;;;18.60;99.90;;;;;;5021938;28;20178;-78
2022/08/28 03:55:55;;;;;;;10.05;9.15;;;18.60;99.90;;;;;;5026436;28;20181;-78
2022/08/28 03:58:22;;;;;;;10.93;9.82;;;18.60;99.90;;;;;;5033171;28;20234;-79
2022/08/28 04:00:49;;;;;;;11.27;10.25;;;18.60;99.90;;;;;;5028353;28;20173;-78
2022/08/28 04:03:16;;;;;;;11.43;10.32;;;18.60;99.90;;;;;;5032752;28;20307;-80
2022/08/28 04:05:44;;;;;;;12.65;11.30;;;18.60;99.90;;;;;;5031585;28;20172;-85
2022/08/28 04:08:14;;;;;;;11.65;10.57;;;18.60;99.90;;;;;;5029777;28;21307;-83
2022/08/28 04:10:44;;;;;;;11.98;10.38;;;18.60;99.90;;;;;;5041661;28;20181;-83
2022/08/28 04:13:11;;;;;;;12.57;10.52;;;18.60;99.90;;;;;;5030733;28;20257;-82
2022/08/28 04:15:37;;;;;;;11.75;10.60;;;18.60;99.90;;;;;;5030368;28;20209;-82
2022/08/28 04:18:03;;;;;;;11.65;10.65;;;18.60;99.90;;;;;;5040848;28;20208;-80
2022/08/28 04:20:28;;;;;;;12.00;10.82;;;18.50;99.90;;;;;;5028075;28;20173;-78
2022/08/28 04:22:54;;;;;;;12.45;11.15;;;18.60;99.90;;;;;;5031511;28;20169;-77
2022/08/28 04:25:20;;;;;;;12.65;11.55;;;18.50;99.90;;;;;;5033679;28;20173;-80
2022/08/28 04:27:47;;;;;;;12.07;10.70;;;18.50;99.90;;;;;;5025113;28;21028;-79
2022/08/28 04:30:13;;;;;;;12.13;10.95;;;18.60;99.90;;;;;;5025870;28;20239;-78
2022/08/28 04:32:39;;;;;;;12.35;10.57;;;18.50;99.90;;;;;;5019759;28;20189;-79
2022/08/28 04:35:06;;;;;;;13.43;10.93;;;18.60;99.90;;;;;;5020674;28;20226;-79
2022/08/28 04:37:32;;;;;;;13.93;11.88;;;18.50;99.90;;;;;;5024718;28;20219;-77
2022/08/28 04:39:58;;;;;;;12.80;11.60;;;18.50;99.90;;;;;;5023426;28;20181;-78
2022/08/28 04:42:23;;;;;;;13.93;11.77;;;18.50;99.90;;;;;;5030906;28;20640;-76
2022/08/28 04:44:49;;;;;;;12.15;11.05;;;18.50;99.90;;;;;;5026835;28;20260;-77
2022/08/28 04:47:15;;;;;;;14.88;12.13;;;18.50;99.90;;;;;;5017722;28;20268;-77
2022/08/28 04:49:40;;;;;;;12.70;11.40;;;18.50;99.90;;;;;;5023119;28;20189;-78
2022/08/28 04:52:06;;;;;;;12.85;11.55;;;18.50;99.90;;;;;;5027630;28;20910;-77
2022/08/28 04:54:33;;;;;;;11.20;10.20;;;18.60;99.90;;;;;;5026725;28;20648;-78
2022/08/28 04:56:59;;;;;;;11.27;10.27;;;18.60;99.90;;;;;;5020991;28;20205;-78
2022/08/28 04:59:26;;;;;;;12.63;11.32;;;18.70;99.90;;;;;;5019503;28;20255;-77
2022/08/28 05:01:52;;;;;;;12.52;11.23;;;18.70;99.90;;;;;;5020021;28;20560;-77
2022/08/28 05:04:18;;;;;;;12.05;10.82;;;18.70;99.90;;;;;;5021645;28;20647;-78
2022/08/28 05:06:45;;;;;;;12.88;11.57;;;18.60;99.90;;;;;;5021659;28;20181;-78
2022/08/28 05:09:15;;;;;;;12.35;10.82;;;18.70;99.90;;;;;;5020179;28;20235;-77
2022/08/28 05:11:43;;;;;;;12.02;10.65;;;18.70;99.90;;;;;;5025497;28;20690;-77
2022/08/28 05:14:11;;;;;;;12.65;11.15;;;18.70;99.90;;;;;;5026194;28;20455;-75
2022/08/28 05:16:44;;;;;;;13.50;12.10;;;18.70;99.90;;;;;;5029561;28;20303;-75
2022/08/28 05:19:10;;;;;;;12.07;10.68;;;18.80;99.90;;;;;;5027688;28;20212;-77
2022/08/28 05:21:36;;;;;;;16.42;12.40;;;18.80;99.90;;;;;;5025811;28;20181;-79
2022/08/28 05:24:02;;;;;;;12.68;11.48;;;18.80;99.90;;;;;;5021344;28;20184;-78
2022/08/28 05:26:28;;;;;;;13.52;12.25;;;18.70;99.90;;;;;;5020538;28;20723;-79
2022/08/28 05:28:55;;;;;;;15.80;12.38;;;18.70;99.90;;;;;;5011102;28;20384;-78
2022/08/28 05:31:22;;;;;;;14.27;11.85;;;18.70;99.90;;;;;;5016731;28;20208;-78
2022/08/28 05:33:50;;;;;;;13.45;12.05;;;18.80;99.90;;;;;;5015797;28;20212;-78
2022/08/28 05:36:18;;;;;;;11.95;10.77;;;18.80;99.90;;;;;;5016049;28;20174;-78
2022/08/28 05:38:44;;;;;;;11.20;10.15;;;18.90;99.90;;;;;;5015056;28;20192;-78
2022/08/28 05:41:10;;;;;;;12.70;11.48;;;19.00;99.90;;;;;;5025993;28;20176;-77
2022/08/28 05:43:36;;;;;;;14.93;11.95;;;19.00;99.90;;;;;;5011040;28;20173;-78
2022/08/28 05:46:09;;;;;;;12.80;11.48;;;19.00;99.90;;;;;;5012894;28;20181;-78
2022/08/28 05:48:37;;;;;;;13.07;11.75;;;19.10;99.90;;;;;;5013013;28;20247;-78
2022/08/28 05:51:08;;;;;;;11.88;10.63;;;19.20;99.90;;;;;;5022760;28;20180;-78
2022/08/28 05:53:36;;;;;;;11.55;10.45;;;19.30;99.90;;;;;;5016311;28;20177;-78
2022/08/28 05:56:03;;;;;;;11.30;10.25;;;19.30;99.90;;;;;;5025831;28;20268;-78
2022/08/28 05:58:30;;;;;;;11.73;10.15;;;19.40;99.90;;;;;;5027028;28;20208;-79
2022/08/28 06:01:14;;;;;;;12.13;11.00;;;19.40;99.90;;;;;;5019513;28;20204;-78
2022/08/28 06:03:41;;;;;;;11.02;9.93;;;19.30;99.90;;;;;;5030190;28;20679;-77
2022/08/28 06:06:08;;;;;;;11.57;10.40;;;19.40;99.90;;;;;;5034335;28;20441;-79
2022/08/28 06:08:35;;;;;;;11.30;10.18;;;19.40;99.90;;;;;;5029930;28;20193;-78
2022/08/28 06:11:01;;;;;;;12.82;10.18;;;19.30;99.90;;;;;;5026678;28;20172;-78
2022/08/28 06:13:28;;;;;;;12.43;11.20;;;19.40;99.90;;;;;;5024947;28;20196;-79
2022/08/28 06:15:55;;;;;;;10.73;9.73;;;19.40;99.90;;;;;;5032648;28;20202;-78
2022/08/28 06:18:21;;;;;;;10.98;10.00;;;19.40;99.90;;;;;;5022987;28;20212;-84
2022/08/28 06:20:48;;;;;;;10.35;9.45;;;19.40;99.90;;;;;;5029252;28;20176;-82
2022/08/28 06:23:19;;;;;;;11.18;10.00;;;19.50;99.90;;;;;;5020681;28;20180;-78
2022/08/28 06:25:47;;;;;;;13.80;10.15;;;19.60;99.90;;;;;;5013865;28;20177;-78
2022/08/28 06:28:19;;;;;;;11.15;9.45;;;19.60;99.90;;;;;;5020509;28;20197;-78
2022/08/28 06:30:45;;;;;;;11.75;9.32;;;19.60;99.90;;;;;;5019282;28;20227;-78
2022/08/28 06:33:12;;;;;;;11.35;10.15;;;19.70;99.90;;;;;;5015573;28;20667;-78
2022/08/28 06:35:47;;;;;;;12.15;10.82;;;19.70;99.90;;;;;;5021630;28;20182;-76
2022/08/28 06:38:13;;;;;;;10.15;9.23;;;19.70;99.90;;;;;;5018241;28;20257;-76
2022/08/28 06:40:41;;;;;;;10.52;9.30;;;19.80;99.90;;;;;;5015785;28;20263;-77
2022/08/28 06:43:08;;;;;;;10.90;9.90;;;19.90;99.90;;;;;;5016053;28;20172;-76
2022/08/28 06:45:39;;;;;;;10.40;9.40;;;20.00;99.90;;;;;;5011944;28;20178;-76
2022/08/28 06:48:05;;;;;;;10.90;9.02;;;20.10;99.90;;;;;;5021401;28;20268;-76
2022/08/28 06:50:31;;;;;;;10.85;9.60;;;20.30;99.90;;;;;;5019170;28;21161;-76
2022/08/28 06:52:57;;;;;;;10.00;8.98;;;20.50;99.90;;;;;;5025989;28;20184;-80
2022/08/28 06:55:23;;;;;;;9.70;8.85;;;20.70;99.90;;;;;;5027955;28;20188;-76
2022/08/28 06:57:49;;;;;;;9.63;8.65;;;20.90;99.90;;;;;;5018143;28;20217;-76
2022/08/28 07:00:15;;;;;;;9.27;8.38;;;20.90;99.90;;;;;;5018169;28;20200;-76
2022/08/28 07:02:40;;;;;;;11.75;8.23;;;21.00;99.90;;;;;;5020916;28;20585;-75
2022/08/28 07:05:07;;;;;;;14.07;7.97;;;21.20;99.90;;;;;;5020798;28;20177;-76
2022/08/28 07:07:33;;;;;;;8.65;7.88;;;21.30;99.90;;;;;;5019335;28;20308;-75
2022/08/28 07:09:58;;;;;;;9.10;8.20;;;21.30;99.90;;;;;;5018908;28;20268;-76
2022/08/28 07:12:24;;;;;;;11.18;8.25;;;21.20;99.90;;;;;;5022813;28;20186;-76
2022/08/28 07:14:49;;;;;;;8.15;7.50;;;21.40;99.90;;;;;;5017640;28;20803;-75
2022/08/28 07:17:15;;;;;;;8.60;7.80;;;21.60;99.90;;;;;;5017760;28;20204;-76
2022/08/28 07:19:41;;;;;;;8.63;7.88;;;21.70;99.90;;;;;;5016280;28;20173;-76
2022/08/28 07:22:06;;;;;;;8.50;7.38;;;21.90;99.90;;;;;;5027946;28;20176;-77
2022/08/28 07:24:32;;;;;;;8.05;6.90;;;22.00;99.90;;;;;;5025615;28;20260;-76
2022/08/28 07:26:58;;;;;;;8.93;7.20;;;22.00;99.90;;;;;;5024491;28;20188;-76
2022/08/28 07:29:23;;;;;;;6.72;6.13;;;22.20;99.90;;;;;;5023447;28;20255;-77
2022/08/28 07:31:52;;;;;;;7.60;6.43;;;22.20;99.90;;;;;;5028042;28;20185;-77
2022/08/28 07:34:20;;;;;;;6.75;6.05;;;22.10;99.90;;;;;;5021530;28;20204;-76
2022/08/28 07:36:47;;;;;;;6.82;5.93;;;22.20;99.90;;;;;;5017382;28;20197;-77
2022/08/28 07:39:13;;;;;;;7.20;6.50;;;22.30;99.90;;;;;;5021060;28;20204;-77
2022/08/28 07:41:41;;;;;;;6.10;5.55;;;22.50;99.90;;;;;;5020906;28;20213;-77
2022/08/28 07:46:58;;;;;;;6.28;5.72;;;22.80;99.90;;;;;;5018759;28;21087;-75
2022/08/28 07:49:24;;;;;;;5.85;5.30;;;23.20;99.90;;;;;;5021683;28;20203;-75
2022/08/28 07:51:50;;;;;;;7.68;5.30;;;23.50;99.90;;;;;;5017128;28;20176;-74
2022/08/28 07:54:16;;;;;;;6.13;5.57;;;23.60;99.90;;;;;;5024744;28;20176;-74
2022/08/28 07:56:42;;;;;;;5.88;5.38;;;23.60;99.90;;;;;;5019877;28;20263;-74
2022/08/28 07:59:10;;;;;;;8.55;5.85;;;23.90;99.90;;;;;;5021220;28;20829;-75
2022/08/28 08:01:39;;;;;;;6.30;5.80;;;24.20;99.90;;;;;;5027336;28;20226;-74
2022/08/28 08:04:06;;;;;;;9.40;5.85;;;24.30;99.90;;;;;;5016038;28;20228;-74
2022/08/28 08:06:33;;;;;;;8.27;5.45;;;24.20;99.90;;;;;;5026160;28;20263;-74
2022/08/28 08:08:59;;;;;;;5.93;5.32;;;24.50;99.90;;;;;;5028393;28;20258;-74
2022/08/28 08:11:25;;;;;;;6.70;6.10;;;24.50;99.90;;;;;;5025519;28;20184;-75
2022/08/28 08:13:52;;;;;;;6.07;5.32;;;24.30;99.90;;;;;;5028494;28;20258;-74
2022/08/28 08:16:21;;;;;;;6.03;5.38;;;24.40;99.90;;;;;;5019204;28;20181;-74
2022/08/28 08:18:47;;;;;;;6.53;5.93;;;24.70;99.90;;;;;;5025311;28;20243;-75
2022/08/28 08:21:18;;;;;;;8.15;5.50;;;25.00;99.90;;;;;;5018699;28;20173;-75
2022/08/28 08:23:44;;;;;;;5.93;5.32;;;25.20;99.90;;;;;;5020922;28;20176;-75
2022/08/28 08:26:20;;;;;;;6.22;5.15;;;25.40;99.90;;;;;;5025074;28;20177;-75
2022/08/28 08:28:47;;;;;;;5.60;5.05;;;25.10;99.90;;;;;;5024147;28;20200;-74
2022/08/28 08:31:26;;;;;;;5.68;5.28;;;25.30;99.90;;;;;;5019454;28;20184;-75
2022/08/28 08:33:55;;;;;;;6.45;5.85;;;25.80;99.90;;;;;;5020332;28;20250;-75
2022/08/28 08:36:23;;;;;;;7.07;5.38;;;26.00;99.90;;;;;;5023068;28;20191;-76
2022/08/28 08:38:50;;;;;;;5.68;5.18;;;25.80;99.90;;;;;;5020092;28;20292;-76
2022/08/28 08:41:32;;;;;;;6.75;4.75;;;25.80;99.90;;;;;;5017761;28;20213;-76
2022/08/28 08:44:13;;;;;;;5.63;5.00;;;26.30;99.90;;;;;;5017783;28;20219;-76
2022/08/28 08:47:18;;;;;;;5.30;4.88;;;26.70;99.90;;;;;;5024495;28;20204;-75
2022/08/28 08:49:57;;;;;;;6.00;5.03;;;26.80;99.90;;;;;;5025433;28;20181;-75
2022/08/28 08:52:26;;;;;;;6.05;4.90;;;26.80;99.90;;;;;;5016638;28;20188;-74
2022/08/28 08:55:15;;;;;;;5.32;4.75;;;26.60;99.90;;;;;;5017756;28;20345;-75
2022/08/28 08:57:43;;;;;;;5.50;5.10;;;26.70;99.90;;;;;;5022374;28;20196;-74
2022/08/28 09:00:10;;;;;;;4.60;4.13;;;26.80;99.90;;;;;;5027711;28;20181;-75
2022/08/28 09:02:44;;;;;;;6.97;4.70;;;27.10;99.90;;;;;;5026707;28;20185;-75
2022/08/28 09:05:15;;;;;;;5.00;4.47;;;27.30;99.90;;;;;;5031190;28;20184;-74
2022/08/28 09:07:48;;;;;;;4.53;4.13;;;27.70;99.90;;;;;;5021401;28;20208;-74
2022/08/28 09:10:14;;;;;;;4.38;3.92;;;27.70;99.90;;;;;;5023870;28;20212;-74
2022/08/28 09:13:00;;;;;;;4.70;4.18;;;28.00;99.90;;;;;;5027904;28;20187;-75
2022/08/28 09:15:33;;;;;;;5.55;4.45;;;28.10;99.90;;;;;;5025744;28;20651;-75
2022/08/28 09:18:17;;;;;;;5.10;4.70;;;27.80;99.90;;;;;;5030237;28;20230;-75
2022/08/28 09:20:42;;;;;;;4.93;4.00;;;27.60;99.90;;;;;;5032599;28;20164;-75
2022/08/28 09:23:08;;;;;;;4.63;4.22;;;28.20;99.90;;;;;;5029572;28;20547;-76
2022/08/28 09:25:51;;;;;;;4.70;4.18;;;29.00;99.90;;;;;;5025776;28;20657;-76
2022/08/28 09:28:23;;;;;;;4.50;4.20;;;29.30;99.90;;;;;;5029500;28;20534;-77
2022/08/28 09:31:06;;;;;;;4.70;4.30;;;29.40;99.90;;;;;;5028500;28;20184;-77
2022/08/28 09:33:41;;;;;;;4.30;3.90;;;29.20;99.60;;;;;;5027433;28;20180;-76
2022/08/28 09:36:26;;;;;;;6.78;4.25;;;29.20;99.10;;;;;;5022524;28;20175;-76
2022/08/28 09:39:24;;;;;;;4.82;4.28;;;29.40;97.80;;;;;;5024450;28;20200;-76
2022/08/28 09:44:55;;;;;;;5.38;4.53;;;30.70;95.20;;;;;;5027752;28;20187;-76
2022/08/28 09:47:39;;;;;;;3.92;3.63;;;31.00;94.00;;;;;;5017820;28;20655;-75
2022/08/28 09:50:33;;;;;;;4.80;4.13;;;31.10;93.10;;;;;;5027207;28;20184;-76
2022/08/28 09:53:20;;;;;;;5.90;4.22;;;30.40;92.90;;;;;;5016995;28;20184;-76
2022/08/28 09:55:58;;;;;;;4.30;3.90;;;30.20;93.50;;;;;;5029392;28;20183;-76
2022/08/28 09:58:34;;;;;;;4.40;3.88;;;30.40;93.40;;;;;;5019863;28;20208;-76
2022/08/28 10:01:23;;;;;;;4.15;3.85;;;30.30;94.20;;;;;;5027967;28;20214;-76
2022/08/28 10:04:00;;;;;;;4.32;4.03;;;30.50;92.40;;;;;;5032746;28;20227;-78
2022/08/28 10:06:32;;;;;;;4.50;4.10;;;31.10;92.40;;;;;;5018227;28;20180;-76
2022/08/28 10:09:18;;;;;;;5.75;4.13;;;32.10;90.60;;;;;;5013496;28;20208;-76
2022/08/28 10:11:56;;;;;;;5.57;4.47;;;32.70;88.40;;;;;;5013366;28;20271;-76
2022/08/28 10:14:49;;;;;;;6.75;4.43;;;32.40;86.10;;;;;;5024640;28;20195;-74
2022/08/28 10:17:27;;;;;;;5.40;4.40;;;32.60;83.10;;;;;;5023775;28;20208;-74
2022/08/28 10:20:14;;;;;;;6.15;4.32;;;32.40;83.40;;;;;;5019914;28;20187;-74
2022/08/28 10:22:55;;;;;;;4.78;4.47;;;32.30;83.30;;;;;;5030249;28;20226;-74
2022/08/28 10:25:31;;;;;;;4.93;4.47;;;32.90;79.20;;;;;;5032011;28;20176;-74
2022/08/28 10:28:00;;;;;;;5.18;4.40;;;33.00;80.00;;;;;;5025088;28;20200;-74
2022/08/28 10:30:27;;;;;;;4.93;4.43;;;33.90;76.60;;;;;;5034399;28;20200;-74
2022/08/28 10:33:18;;;;;;;6.53;3.88;;;34.50;74.10;;;;;;5026991;28;20249;-78
2022/08/28 10:35:51;;;;;;;4.25;3.75;;;35.10;72.00;;;;;;5025885;28;20769;-73
2022/08/28 10:38:35;;;;;;;4.05;3.75;;;35.30;69.40;;;;;;5017284;28;20718;-73
2022/08/28 10:41:07;;;;;;;4.00;3.65;;;37.20;64.80;;;;;;5016992;28;20176;-73
2022/08/28 10:43:35;;;;;;;3.88;3.53;;;39.00;59.50;;;;;;5022039;28;20176;-72
2022/08/28 10:46:25;;;;;;;3.72;3.20;;;39.90;55.10;;;;;;5023169;28;20172;-73
2022/08/28 10:48:57;;;;;;;3.35;2.95;;;40.30;54.70;;;;;;5018955;28;20227;-72
2022/08/28 10:51:32;;;;;;;3.78;3.47;;;39.90;54.10;;;;;;5018023;28;20172;-74
2022/08/28 10:54:03;;;;;;;4.03;3.53;;;39.10;54.80;;;;;;5023391;28;20191;-73
2022/08/28 10:56:41;;;;;;;4.05;3.50;;;37.80;56.60;;;;;;5021778;28;20187;-73
2022/08/28 10:59:07;;;;;;;3.65;3.30;;;37.30;57.60;;;;;;5017144;28;20201;-73
2022/08/28 11:01:40;;;;;;;4.38;3.30;;;36.40;59.50;;;;;;5019904;28;20247;-73
2022/08/28 11:04:26;;;;;;;3.42;3.13;;;36.50;60.30;;;;;;5023877;28;20191;-73
2022/08/28 11:07:14;;;;;;;4.40;3.30;;;37.80;57.30;;;;;;5022403;28;20686;-73
2022/08/28 11:09:46;;;;;;;4.25;3.42;;;37.70;55.50;;;;;;5018500;28;20188;-73
2022/08/28 11:12:18;;;;;;;3.97;3.30;;;37.20;56.70;;;;;;5017987;28;20175;-73
2022/08/28 11:14:46;;;;;;;14.07;7.40;;;37.20;56.00;;;;;;5016742;28;20206;-72
2022/08/28 11:17:24;;;;;;;4.68;3.10;;;36.90;57.30;;;;;;5020671;28;20239;-73
2022/08/28 11:20:11;;;;;;;3.25;3.03;;;37.00;57.40;;;;;;5016374;28;20180;-72
2022/08/28 11:22:58;;;;;;;6.68;3.63;;;37.00;57.00;;;;;;5014981;28;20263;-72
2022/08/28 11:25:44;;;;;;;3.53;3.22;;;37.70;56.10;;;;;;5018922;28;20177;-72
2022/08/28 11:28:13;;;;;;;4.63;2.95;;;38.70;53.70;;;;;;5021978;28;20627;-73
2022/08/28 11:30:39;;;;;;;4.13;2.92;;;39.30;53.00;;;;;;5015465;28;20254;-74
2022/08/28 11:33:34;;;;;;;3.30;3.05;;;40.00;51.10;;;;;;5018759;28;20187;-73
2022/08/28 11:36:00;;;;;;;3.90;2.85;;;39.50;51.20;;;;;;5021277;28;20686;-74
2022/08/28 11:38:41;;;;;;;3.22;2.92;;;39.90;50.30;;;;;;5021169;28;20221;-73
2022/08/28 11:41:20;;;;;;;2.72;2.50;;;39.90;50.60;;;;;;5021266;28;20190;-73
2022/08/28 11:43:48;;;;;;;3.65;3.33;;;40.10;49.60;;;;;;5020851;28;20191;-73
2022/08/28 11:46:46;;;;;;;3.35;3.05;;;40.00;50.50;;;;;;5020028;28;20191;-74
2022/08/28 11:49:30;;;;;;;3.25;2.92;;;40.10;49.50;;;;;;5020420;28;20246;-73
2022/08/28 11:52:10;;;;;;;4.38;2.65;;;40.40;49.70;;;;;;5021389;28;20181;-73
2022/08/28 11:54:55;;;;;;;3.40;3.10;;;39.40;49.40;;;;;;5017436;28;20192;-73
2022/08/28 11:57:42;;;;;;;3.55;3.13;;;38.70;51.20;;;;;;5018404;28;20200;-72
2022/08/28 12:00:28;;;;;;;3.10;2.90;;;38.60;51.70;;;;;;5016203;28;20184;-72
2022/08/28 12:03:14;;;;;;;3.28;2.97;;;39.90;50.00;;;;;;5021309;28;20193;-72
2022/08/28 12:05:47;;;;;;;4.88;3.10;;;40.00;50.10;;;;;;5019739;28;20184;-72
2022/08/28 12:08:49;;;;;;;2.65;2.45;;;40.70;48.40;;;;;;5018605;28;20720;-72
2022/08/28 12:11:40;;;;;;;3.40;2.53;;;40.20;47.70;;;;;;5017980;28;20191;-72
2022/08/28 12:14:10;;;;;;;3.65;2.70;;;39.30;48.70;;;;;;5024174;28;20201;-72
2022/08/28 12:16:57;;;;;;;3.70;3.22;;;39.20;49.00;;;;;;5018273;28;20708;-71
2022/08/28 12:19:46;;;;;;;3.10;2.35;;;39.80;48.90;;;;;;5016697;28;20200;-72
2022/08/28 12:22:18;;;;;;;2.63;2.42;;;40.40;46.60;;;;;;5022407;28;20214;-72
2022/08/28 12:25:04;;;;;;;3.30;2.78;;;41.10;47.20;;;;;;5024920;28;20168;-74
2022/08/28 12:27:30;;;;;;;2.60;2.40;;;41.80;46.80;;;;;;5028591;28;20574;-72
2022/08/28 12:29:59;;;;;;;3.17;2.88;;;41.30;46.70;;;;;;5026787;28;20177;-74
2022/08/28 12:32:32;;;;;;;3.85;2.85;;;41.00;47.30;;;;;;5030833;28;22247;-72
2022/08/28 12:34:58;;;;;;;3.33;3.03;;;41.10;45.70;;;;;;5038822;28;20769;-72
2022/08/28 12:37:26;;;;;;;3.35;2.90;;;40.80;46.70;;;;;;5020003;28;20205;-72
2022/08/28 12:39:55;;;;;;;2.88;2.67;;;40.80;46.40;;;;;;5038437;28;20176;-72
2022/08/28 12:42:26;;;;;;;3.13;2.78;;;40.90;46.30;;;;;;5024325;28;20234;-72
2022/08/28 12:44:51;;;;;;;3.50;3.20;;;41.10;46.20;;;;;;5027361;28;20180;-72
2022/08/28 12:47:21;;;;;;;2.72;2.53;;;40.90;47.20;;;;;;5041330;28;20180;-71
2022/08/28 12:49:47;;;;;;;3.10;2.72;;;39.90;48.00;;;;;;5032023;28;20183;-72
2022/08/28 12:52:20;;;;;;;4.03;3.70;;;39.20;49.10;;;;;;5030135;28;20180;-72
2022/08/28 12:54:48;;;;;;;5.18;4.72;;;39.30;48.60;;;;;;5022821;28;20404;-72
2022/08/28 12:57:20;;;;;;;4.13;2.90;;;38.80;48.40;;;;;;5032718;28;20192;-71
2022/08/28 12:59:48;;;;;;;3.85;3.05;;;38.00;49.90;;;;;;5031236;28;20172;-71
2022/08/28 13:02:25;;;;;;;3.90;3.03;;;37.30;51.10;;;;;;5028192;28;20210;-71
2022/08/28 13:04:58;;;;;;;2.65;2.50;;;37.30;51.20;;;;;;5029863;28;20168;-72
2022/08/28 13:07:36;;;;;;;3.75;2.90;;;38.00;49.80;;;;;;5022346;28;20179;-71
2022/08/28 13:10:35;;;;;;;4.85;3.08;;;37.60;49.80;;;;;;5022801;28;20196;-73